Impacts TAF Board
For situational awareness. Not to be used for flight planning purposes.
IDs:

KFLL - Ft Lauderdale-Hollyw, FL, US

Issued at 0857 UTC 18 Oct 2018
Updated at 1029 UTC 18 Oct 2018
Potential Impact None Slight Moderate High
Time0953Z 18/11Z 18/12Z 18/13Z 18/14Z 18/15Z 18/16Z 18/17Z 18/18Z 18/19Z 18/20Z 18/21Z 18/22Z 18/23Z>>
Type OBS PRVL PRVL PRVL PRVL PRVL PRVL PRVL PRVL PRVL PRVL PRVL PRVL PRVL
VIS 10 >6 >6 >6 >6 >6 >6 >6 >6 >6 >6 >6 >6 >6
CIG -- -- -- -- -- -- -- -- -- -- -- -- -- --
Cover SCT FEW FEW FEW FEW FEW SCT SCT SCT SCT SCT SCT SCT SCT
FltCat VFR VFR VFR VFR VFR VFR VFR VFR VFR VFR VFR VFR VFR VFR
WX -- -- -- -- -- -- -- -- -- -- -- -- -- --
WDir 80 80 80 80 80 80 90 90 90 90 90 90 90 90
WSpd 10 8 8 8 8 8 12 12 12 12 12 12 12 12
WGst -- -- -- -- -- -- -- -- -- -- -- -- -- --
Raw TAF
KFLL 180857Z 1809/1912 08008KT P6SM FEW025
  FM181600 09012KT P6SM SCT025 SCT250
  FM190100 08010KT P6SM SCT030 SCT250


Raw METAR
KFLL 180953Z 08010KT 10SM SCT023 27/24 A3009 RMK AO2 SLP190 T02720244
KFLL 180853Z 10012KT 10SM FEW023 27/24 A3008 RMK AO2 SLP186 T02720244 56007
KFLL 180830Z 10008KT 10SM SCT022 27/25 A3008 RMK AO2 T02720250
KFLL 180800Z 14004KT 10SM BKN023 BKN032 27/24 A3009 RMK AO2 T02670244
KFLL 180753Z 13007KT 10SM SCT023 27/24 A3009 RMK AO2 SLP188 T02670244

METAR Board
Radar Display
Forecast Discussion
For situational awareness. Not to be used for flight planning purposes.